Evelyn Maersk — OXHV2 — position and weather

sailwx.info

Track history (hours):
 
Tides and Currents Weather Stations Pressure Air Temp Water Temp Dewpoint Dewpoint Depression Visibility Wind Speed Wind Dir Waves Ship Positions

Evelyn Maersk

Last reported at 2017-Mar-29 14:33 UTC. Time now 2017-Mar-29 15:21 UTC.
Position N 51°18' E 004°16'.

Length 398 m; draft 11.3 m.

Type: Ship (hazmat cat A). MMSI: 220496000.

Date/timePositionNaut miles runAvg speedWind from/ knotsBaromVisibWave heightAir tempDewpointWater temp
2017-Mar-29 14:33N 51°18' E 004°16'0 0.0
2017-Mar-29 13:33N 51°18' E 004°16'0 0.0
2017-Mar-29 12:33N 51°18' E 004°16'0 0.0
2017-Mar-29 11:33N 51°18' E 004°16'0 0.0
2017-Mar-29 10:33N 51°18' E 004°16'0 0.0
2017-Mar-29 09:30N 51°18' E 004°16'0 0.0
2017-Mar-29 08:33N 51°18' E 004°16'0 0.0
2017-Mar-29 07:33N 51°18' E 004°16'0 0.0
2017-Mar-29 06:33N 51°18' E 004°16'0 0.0
2017-Mar-29 05:33N 51°18' E 004°16'0 0.0
2017-Mar-29 04:33N 51°18' E 004°16'0 0.0
2017-Mar-29 03:33N 51°18' E 004°16'0 0.0
2017-Mar-29 02:33N 51°18' E 004°16'0 0.0
2017-Mar-29 01:30N 51°18' E 004°16'1 1.0
2017-Mar-29 00:33N 51°18' E 004°17'6 6.5
2017-Mar-28 23:34N 51°23' E 004°09'9 8.6
2017-Mar-28 22:33N 51°22' E 003°55'10 9.9
2017-Mar-28 21:33N 51°26' E 003°41'1211.7
2017-Mar-28 20:33N 51°24' E 003°22'1413.6
2017-Mar-28 19:33N 51°24' E 003°01'1111.4
2017-Mar-28 18:34N 51°23' E 002°42'5 4.8
2017-Mar-28 17:34N 51°27' E 002°38'0 0.1
2017-Mar-28 16:31N 51°27' E 002°38'0 0.0
2017-Mar-28 15:31N 51°27' E 002°38'0 0.0
2017-Mar-28 14:31N 51°27' E 002°38'0 0.0
2017-Mar-28 13:31N 51°27' E 002°38'0 0.0
2017-Mar-28 12:31N 51°27' E 002°38'0 0.0
2017-Mar-28 11:31N 51°27' E 002°38'0 0.2
2017-Mar-28 10:31N 51°27' E 002°38'0 0.1
2017-Mar-28 09:31N 51°27' E 002°38'0 0.0
2017-Mar-28 08:31N 51°27' E 002°38'0 0.0
2017-Mar-28 07:31N 51°27' E 002°38'0 0.1
2017-Mar-28 06:31N 51°27' E 002°38'0 0.2
2017-Mar-28 05:31N 51°27' E 002°38'0 0.0
2017-Mar-28 04:28N 51°27' E 002°38'0 0.0
2017-Mar-28 03:31N 51°27' E 002°38'0 0.0
2017-Mar-28 02:31N 51°27' E 002°38'0 0.0
2017-Mar-28 01:28N 51°27' E 002°38'0 0.0
2017-Mar-28 00:31N 51°27' E 002°38'0 0.1
2017-Mar-27 23:31N 51°27' E 002°38'0 0.3
2017-Mar-27 22:31N 51°27' E 002°38'0 0.0
2017-Mar-27 21:31N 51°27' E 002°38'0 0.0
2017-Mar-27 20:31N 51°27' E 002°38'0 0.0
2017-Mar-27 19:31N 51°27' E 002°38'0 0.0
2017-Mar-27 18:31N 51°27' E 002°38'0 0.0
2017-Mar-27 17:31N 51°27' E 002°38'0 0.1
2017-Mar-27 16:31N 51°27' E 002°38'0 0.2
2017-Mar-27 15:31N 51°27' E 002°38'0 0.0
2017-Mar-27 14:31N 51°27' E 002°38'3 3.2
2017-Mar-27 13:33N 51°24' E 002°40'1212.5
2017-Mar-27 12:33N 51°20' E 002°21'1211.9
2017-Mar-27 11:33N 51°22' E 002°03'1212.5
2017-Mar-27 10:33N 51°32' E 001°50'1413.6
2017-Mar-27 09:34N 51°45' E 001°44'8 7.6
2017-Mar-27 08:34N 51°51' E 001°37'8 7.7
2017-Mar-27 07:33N 51°56' E 001°27'5 4.8
2017-Mar-27 06:32N 51°57' E 001°19'0 0.0
2017-Mar-27 05:32N 51°57' E 001°19'0 0.0
2017-Mar-27 04:32N 51°57' E 001°19'0 0.0
2017-Mar-27 03:32N 51°57' E 001°19'0 0.0
2017-Mar-27 02:32N 51°57' E 001°19'0 0.0
2017-Mar-27 01:32N 51°57' E 001°19'0 0.0
2017-Mar-27 00:32N 51°57' E 001°19'0 0.0
2017-Mar-26 23:32N 51°57' E 001°19'0 0.0
2017-Mar-26 22:32N 51°57' E 001°19'0 0.0
2017-Mar-26 21:32N 51°57' E 001°19'0 0.0
2017-Mar-26 20:32N 51°57' E 001°19'0 0.0
2017-Mar-26 19:32N 51°57' E 001°19'0 0.0
2017-Mar-26 18:32N 51°57' E 001°19'0 0.0
2017-Mar-26 17:32N 51°57' E 001°19'0 0.0
2017-Mar-26 16:32N 51°57' E 001°19'0 0.0
2017-Mar-26 15:32N 51°57' E 001°19'0 0.0
2017-Mar-26 14:32N 51°57' E 001°19'0 0.0
2017-Mar-26 13:32N 51°57' E 001°19'0 0.0
2017-Mar-26 12:32N 51°57' E 001°19'0 0.0
2017-Mar-26 11:32N 51°57' E 001°19'0 0.0
2017-Mar-26 10:32N 51°57' E 001°19'0 0.0
2017-Mar-26 09:32N 51°57' E 001°19'0 0.0
2017-Mar-26 08:32N 51°57' E 001°19'0 0.0
2017-Mar-26 07:32N 51°57' E 001°19'0 0.0
2017-Mar-26 06:32N 51°57' E 001°19'0 0.0
2017-Mar-26 05:32N 51°57' E 001°19'0 0.0
2017-Mar-26 04:32N 51°57' E 001°19'0 0.0
2017-Mar-26 03:32N 51°57' E 001°19'0 0.0
2017-Mar-26 02:32N 51°57' E 001°19'0 0.0
2017-Mar-26 01:32N 51°57' E 001°19'0 0.0
2017-Mar-26 00:32N 51°57' E 001°19'0 0.0
2017-Mar-25 23:32N 51°57' E 001°19'0 0.0
2017-Mar-25 22:32N 51°57' E 001°19'0 0.1
2017-Mar-25 21:32N 51°57' E 001°19'5 4.8
2017-Mar-25 20:33N 51°56' E 001°26'9 9.5
2017-Mar-25 19:33N 51°51' E 001°40'9 8.8
2017-Mar-25 18:33N 51°45' E 001°49'1414.0
2017-Mar-25 17:33N 51°31' E 001°52'1413.7
2017-Mar-25 16:33N 51°17' E 001°55'1717.2
2017-Mar-25 15:33N 51°04' E 001°38'1717.3
2017-Mar-25 14:33N 50°48' E 001°25'1717.1
2017-Mar-25 13:33N 50°35' E 001°08'1716.8
2017-Mar-25 12:33N 50°28' E 000°44'1717.4
2017-Mar-25 11:33N 50°23' E 000°18'1817.6
2017-Mar-25 10:33N 50°19' W 000°09'1918.5
2017-Mar-25 09:33N 50°14' W 000°37'2019.6
2017-Mar-25 08:33N 50°08' W 001°06'2120.6
2017-Mar-25 07:33N 50°03' W 001°37'2221.6
2017-Mar-25 06:34N 49°56' W 002°09'2121.0
2017-Mar-25 05:32N 49°51' W 002°41'2020.9
2017-Mar-25 04:33N 49°43' W 003°10'2121.0
2017-Mar-25 03:33N 49°32' W 003°39'2121.0
2017-Mar-25 02:33N 49°21' W 004°06'2321.1
2017-Mar-25 01:29N 49°10' W 004°36'2021.5
2017-Mar-25 00:32N 48°60' W 005°03'1919.6
2017-Mar-24 23:33N 48°50' W 005°29'1616.3
2017-Mar-24 22:33N 48°38' W 005°44'56319.8
2017-Mar-23 18:06N 39°43' W 009°49'1018.5
2017-Mar-23 17:34N 39°33' W 009°49'1818.2
2017-Mar-23 16:34N 39°15' W 009°49'1717.5
2017-Mar-23 15:34N 38°57' W 009°50'1717.3
2017-Mar-23 14:34N 38°40' W 009°49'1717.4
2017-Mar-23 13:33N 38°23' W 009°43'1817.6
2017-Mar-23 12:34N 38°06' W 009°39'1717.2
2017-Mar-23 11:34N 37°49' W 009°36'1915.6
2017-Mar-23 10:19N 37°30' W 009°30'3316.3
2017-Mar-23 08:17N 36°58' W 009°21'1216.1
2017-Mar-23 07:32N 36°48' W 009°12'1414.3
2017-Mar-23 06:33N 36°41' W 008°57'2020.0
2017-Mar-23 05:33N 36°35' W 008°33'2121.2
2017-Mar-23 04:34N 36°30' W 008°08'10021.9
2017-Mar-23 00:00N 35°54' W 006°12'2819.0 350 / 211017.810.8 15.1 8.615.5
2017-Mar-22 22:32N 35°57' W 005°38'1919.1
2017-Mar-22 21:34N 36°02' W 005°16'69220.6
2017-Mar-21 12:00N 37°36' E 009°00'10522.2 340 / 151012.810.8 19.814.015.7
2017-Mar-21 07:17N 37°26' E 011°12'1622.0
2017-Mar-21 06:33N 37°19' E 011°29'4422.0
2017-Mar-21 04:34N 36°60' E 012°19'2522.1
2017-Mar-21 03:27N 36°49' E 012°46'2022.8
2017-Mar-21 02:33N 36°41' E 013°10'2322.6
2017-Mar-21 01:33N 36°36' E 013°37'2222.2
2017-Mar-21 00:33N 36°30' E 014°04'915.7
2017-Mar-21 00:00N 36°24' E 014°12'1533.9 080 / 141011.410.8 17.113.815.4
2017-Mar-20 23:33N 36°23' E 014°31'2222.2
2017-Mar-20 22:33N 36°17' E 014°57'2221.8
2017-Mar-20 21:33N 36°10' E 015°23'2221.9
2017-Mar-20 20:33N 36°04' E 015°49'2222.0
2017-Mar-20 19:33N 35°57' E 016°14'2222.1
2017-Mar-20 18:33N 35°50' E 016°40'11721.5
2017-Mar-20 13:05N 35°15' E 018°58'1221.1
2017-Mar-20 12:31N 35°11' E 019°12'1121.1
2017-Mar-20 12:00N 35°06' E 019°24'1121.4 220 / 161016.210.8 16.813.215.8
2017-Mar-20 11:29N 35°05' E 019°37'24421.2
2017-Mar-20 00:00N 33°48' E 024°18'   270 / 251015.510.8 17.813.516.0
Track history (hours):
 
Tides and Currents Weather Stations Pressure Air Temp Water Temp Dewpoint Dewpoint Depression Visibility Wind Speed Wind Dir Waves Ship Positions

Evelyn Maersk

Last reported at 2017-Mar-29 14:33 UTC. Time now 2017-Mar-29 15:21 UTC.
Position N 51°18' E 004°16'.

Length 398 m; draft 11.3 m.

Type: Ship (hazmat cat A). MMSI: 220496000.

Date/timePositionNaut miles runAvg speedWind from/ knotsBaromVisibWave heightAir tempDewpointWater temp
2017-Mar-29 14:33N 51°18' E 004°16'0 0.0
2017-Mar-29 13:33N 51°18' E 004°16'0 0.0
2017-Mar-29 12:33N 51°18' E 004°16'0 0.0
2017-Mar-29 11:33N 51°18' E 004°16'0 0.0
2017-Mar-29 10:33N 51°18' E 004°16'0 0.0
2017-Mar-29 09:30N 51°18' E 004°16'0 0.0
2017-Mar-29 08:33N 51°18' E 004°16'0 0.0
2017-Mar-29 07:33N 51°18' E 004°16'0 0.0
2017-Mar-29 06:33N 51°18' E 004°16'0 0.0
2017-Mar-29 05:33N 51°18' E 004°16'0 0.0
2017-Mar-29 04:33N 51°18' E 004°16'0 0.0
2017-Mar-29 03:33N 51°18' E 004°16'0 0.0
2017-Mar-29 02:33N 51°18' E 004°16'0 0.0
2017-Mar-29 01:30N 51°18' E 004°16'1 1.0
2017-Mar-29 00:33N 51°18' E 004°17'6 6.5
2017-Mar-28 23:34N 51°23' E 004°09'9 8.6
2017-Mar-28 22:33N 51°22' E 003°55'10 9.9
2017-Mar-28 21:33N 51°26' E 003°41'1211.7
2017-Mar-28 20:33N 51°24' E 003°22'1413.6
2017-Mar-28 19:33N 51°24' E 003°01'1111.4
2017-Mar-28 18:34N 51°23' E 002°42'5 4.8
2017-Mar-28 17:34N 51°27' E 002°38'0 0.1
2017-Mar-28 16:31N 51°27' E 002°38'0 0.0
2017-Mar-28 15:31N 51°27' E 002°38'0 0.0
2017-Mar-28 14:31N 51°27' E 002°38'0 0.0
2017-Mar-28 13:31N 51°27' E 002°38'0 0.0
2017-Mar-28 12:31N 51°27' E 002°38'0 0.0
2017-Mar-28 11:31N 51°27' E 002°38'0 0.2
2017-Mar-28 10:31N 51°27' E 002°38'0 0.1
2017-Mar-28 09:31N 51°27' E 002°38'0 0.0
2017-Mar-28 08:31N 51°27' E 002°38'0 0.0
2017-Mar-28 07:31N 51°27' E 002°38'0 0.1
2017-Mar-28 06:31N 51°27' E 002°38'0 0.2
2017-Mar-28 05:31N 51°27' E 002°38'0 0.0
2017-Mar-28 04:28N 51°27' E 002°38'0 0.0
2017-Mar-28 03:31N 51°27' E 002°38'0 0.0
2017-Mar-28 02:31N 51°27' E 002°38'0 0.0
2017-Mar-28 01:28N 51°27' E 002°38'0 0.0
2017-Mar-28 00:31N 51°27' E 002°38'0 0.1
2017-Mar-27 23:31N 51°27' E 002°38'0 0.3
2017-Mar-27 22:31N 51°27' E 002°38'0 0.0
2017-Mar-27 21:31N 51°27' E 002°38'0 0.0
2017-Mar-27 20:31N 51°27' E 002°38'0 0.0
2017-Mar-27 19:31N 51°27' E 002°38'0 0.0
2017-Mar-27 18:31N 51°27' E 002°38'0 0.0
2017-Mar-27 17:31N 51°27' E 002°38'0 0.1
2017-Mar-27 16:31N 51°27' E 002°38'0 0.2
2017-Mar-27 15:31N 51°27' E 002°38'0 0.0
2017-Mar-27 14:31N 51°27' E 002°38'3 3.2
2017-Mar-27 13:33N 51°24' E 002°40'1212.5
2017-Mar-27 12:33N 51°20' E 002°21'1211.9
2017-Mar-27 11:33N 51°22' E 002°03'1212.5
2017-Mar-27 10:33N 51°32' E 001°50'1413.6
2017-Mar-27 09:34N 51°45' E 001°44'8 7.6
2017-Mar-27 08:34N 51°51' E 001°37'8 7.7
2017-Mar-27 07:33N 51°56' E 001°27'5 4.8
2017-Mar-27 06:32N 51°57' E 001°19'0 0.0
2017-Mar-27 05:32N 51°57' E 001°19'0 0.0
2017-Mar-27 04:32N 51°57' E 001°19'0 0.0
2017-Mar-27 03:32N 51°57' E 001°19'0 0.0
2017-Mar-27 02:32N 51°57' E 001°19'0 0.0
2017-Mar-27 01:32N 51°57' E 001°19'0 0.0
2017-Mar-27 00:32N 51°57' E 001°19'0 0.0
2017-Mar-26 23:32N 51°57' E 001°19'0 0.0
2017-Mar-26 22:32N 51°57' E 001°19'0 0.0
2017-Mar-26 21:32N 51°57' E 001°19'0 0.0
2017-Mar-26 20:32N 51°57' E 001°19'0 0.0
2017-Mar-26 19:32N 51°57' E 001°19'0 0.0
2017-Mar-26 18:32N 51°57' E 001°19'0 0.0
2017-Mar-26 17:32N 51°57' E 001°19'0 0.0
2017-Mar-26 16:32N 51°57' E 001°19'0 0.0
2017-Mar-26 15:32N 51°57' E 001°19'0 0.0
2017-Mar-26 14:32N 51°57' E 001°19'0 0.0
2017-Mar-26 13:32N 51°57' E 001°19'0 0.0
2017-Mar-26 12:32N 51°57' E 001°19'0 0.0
2017-Mar-26 11:32N 51°57' E 001°19'0 0.0
2017-Mar-26 10:32N 51°57' E 001°19'0 0.0
2017-Mar-26 09:32N 51°57' E 001°19'0 0.0
2017-Mar-26 08:32N 51°57' E 001°19'0 0.0
2017-Mar-26 07:32N 51°57' E 001°19'0 0.0
2017-Mar-26 06:32N 51°57' E 001°19'0 0.0
2017-Mar-26 05:32N 51°57' E 001°19'0 0.0
2017-Mar-26 04:32N 51°57' E 001°19'0 0.0
2017-Mar-26 03:32N 51°57' E 001°19'0 0.0
2017-Mar-26 02:32N 51°57' E 001°19'0 0.0
2017-Mar-26 01:32N 51°57' E 001°19'0 0.0
2017-Mar-26 00:32N 51°57' E 001°19'0 0.0
2017-Mar-25 23:32N 51°57' E 001°19'0 0.0
2017-Mar-25 22:32N 51°57' E 001°19'0 0.1
2017-Mar-25 21:32N 51°57' E 001°19'5 4.8
2017-Mar-25 20:33N 51°56' E 001°26'9 9.5
2017-Mar-25 19:33N 51°51' E 001°40'9 8.8
2017-Mar-25 18:33N 51°45' E 001°49'1414.0
2017-Mar-25 17:33N 51°31' E 001°52'1413.7
2017-Mar-25 16:33N 51°17' E 001°55'1717.2
2017-Mar-25 15:33N 51°04' E 001°38'1717.3
2017-Mar-25 14:33N 50°48' E 001°25'1717.1
2017-Mar-25 13:33N 50°35' E 001°08'1716.8
2017-Mar-25 12:33N 50°28' E 000°44'1717.4
2017-Mar-25 11:33N 50°23' E 000°18'1817.6
2017-Mar-25 10:33N 50°19' W 000°09'1918.5
2017-Mar-25 09:33N 50°14' W 000°37'2019.6
2017-Mar-25 08:33N 50°08' W 001°06'2120.6
2017-Mar-25 07:33N 50°03' W 001°37'2221.6
2017-Mar-25 06:34N 49°56' W 002°09'2121.0
2017-Mar-25 05:32N 49°51' W 002°41'2020.9
2017-Mar-25 04:33N 49°43' W 003°10'2121.0
2017-Mar-25 03:33N 49°32' W 003°39'2121.0
2017-Mar-25 02:33N 49°21' W 004°06'2321.1
2017-Mar-25 01:29N 49°10' W 004°36'2021.5
2017-Mar-25 00:32N 48°60' W 005°03'1919.6
2017-Mar-24 23:33N 48°50' W 005°29'1616.3
2017-Mar-24 22:33N 48°38' W 005°44'56319.8
2017-Mar-23 18:06N 39°43' W 009°49'1018.5
2017-Mar-23 17:34N 39°33' W 009°49'1818.2
2017-Mar-23 16:34N 39°15' W 009°49'1717.5
2017-Mar-23 15:34N 38°57' W 009°50'1717.3
2017-Mar-23 14:34N 38°40' W 009°49'1717.4
2017-Mar-23 13:33N 38°23' W 009°43'1817.6
2017-Mar-23 12:34N 38°06' W 009°39'1717.2
2017-Mar-23 11:34N 37°49' W 009°36'1915.6
2017-Mar-23 10:19N 37°30' W 009°30'3316.3
2017-Mar-23 08:17N 36°58' W 009°21'1216.1
2017-Mar-23 07:32N 36°48' W 009°12'1414.3
2017-Mar-23 06:33N 36°41' W 008°57'2020.0
2017-Mar-23 05:33N 36°35' W 008°33'2121.2
2017-Mar-23 04:34N 36°30' W 008°08'10021.9
2017-Mar-23 00:00N 35°54' W 006°12'2819.0 350 / 211017.810.8 15.1 8.615.5
2017-Mar-22 22:32N 35°57' W 005°38'1919.1
2017-Mar-22 21:34N 36°02' W 005°16'69220.6
2017-Mar-21 12:00N 37°36' E 009°00'10522.2 340 / 151012.810.8 19.814.015.7
2017-Mar-21 07:17N 37°26' E 011°12'1622.0
2017-Mar-21 06:33N 37°19' E 011°29'4422.0
2017-Mar-21 04:34N 36°60' E 012°19'2522.1
2017-Mar-21 03:27N 36°49' E 012°46'2022.8
2017-Mar-21 02:33N 36°41' E 013°10'2322.6
2017-Mar-21 01:33N 36°36' E 013°37'2222.2
2017-Mar-21 00:33N 36°30' E 014°04'915.7
2017-Mar-21 00:00N 36°24' E 014°12'1533.9 080 / 141011.410.8 17.113.815.4
2017-Mar-20 23:33N 36°23' E 014°31'2222.2
2017-Mar-20 22:33N 36°17' E 014°57'2221.8
2017-Mar-20 21:33N 36°10' E 015°23'2221.9
2017-Mar-20 20:33N 36°04' E 015°49'2222.0
2017-Mar-20 19:33N 35°57' E 016°14'2222.1
2017-Mar-20 18:33N 35°50' E 016°40'11721.5
2017-Mar-20 13:05N 35°15' E 018°58'1221.1
2017-Mar-20 12:31N 35°11' E 019°12'1121.1
2017-Mar-20 12:00N 35°06' E 019°24'1121.4 220 / 161016.210.8 16.813.215.8
2017-Mar-20 11:29N 35°05' E 019°37'24421.2
2017-Mar-20 00:00N 33°48' E 024°18'   270 / 251015.510.8 17.813.516.0

Dump ship's entire track history